Tobruk, Libya
Current Conditions -  °F | °C
As of 3:00 PM on Wednesday 26 Nov 2014 (Local Time) from HEMM Reporting Station
Broken Clouds Broken Clouds  
Wind Chill: 66°   Ceiling: 2200
Heat Index: 66°   Visibility: 6mi
Dew Point: 52°   Wind: 14mph
Humidity: 60%   Direction: 330°NNW
Pressure: 30.03"   Gusts: NA
Location:  32.08°N, 23.98°E
Report Text: HEMM 261200Z 33012KT 9999 SCT020 BKN022 19/11 Q1017 NOSIG
Loading
Personal Weather Stations






























Interactive Weather Map New forecast layout! Learn more

10-Day Weather Forecast

Advertisements
Track Severe Weather on mobile